Airfield :
LOGIN :

Register | Disclaimer

   EN    FR    IT 

 










Legend :    VFR   Marginal VFR   IFR   Intensive IFR   Very Intensive IFR
Visi :
Ceiling :
>= 8 km
>= 3000ft
5 to 8 km
1000 to 3000 ft
1500m to 5 km
500 to 1000 ft
800 to 1500m
200 to 500 ft
< 800m
< 200 ft
Symbols :   Thunderstorms  Fog  Heavy snow  Heavy precipitations  Wind > 20 kt
SIGMETs :     Misc.  Thunderstorms  Icing  Turbulence  Mountain Waves  Volcanic Ashes







- Airport Elevation : 81 ft
- IATA code : SCS
- Download approach charts


EGPM - Scatsta

CURRENT METAR :
  • 210220Z AUTO 28009KT 9999 FEW020/// SCT047/// 09/04 Q1013

EXPIRED METARs :
  • 210150Z AUTO 28009KT 9999 FEW020/// BKN043/// 09/04 Q1013
  • 210120Z AUTO 27006KT 9999 NCD 08/04 Q1013
  • 210050Z AUTO 27007KT 9999 FEW025/// 07/04 Q1013
  • 210020Z AUTO 24005KT 9999 FEW021/// 06/02 Q1013
  • 202350Z AUTO 27004KT 240V300 9999 FEW023/// SCT044/// 07/02 Q1013

TAF TAF EGPM
Valid from the 21 at 03:00 until the 21 at 12:00 UTC


210156Z 2103/2112 29009KT 9999 FEW025
TEMPO 2103/2112 30018G28KT 6000 SHRA BKN012
No reported NOTAMs for that airfield.



MET'MAP, your aeronautical weather chart ! - Copyright ORBIFLY December 2007 - Disclaimer

ORBIFLY MET'MAP TEAM :

Programming & Development : Alexandra Zaïnal
Concept & Development : Baudouin d'Aumeries
Co-Development & Prog : Marc-Olivier Méhu
Technical & hardware support : Manuel Goepfert

Contact : metmap@orbifly.com




SOURCES & CREDITS :

   NOAA